sensor_id;sensor_type;location;lat;lon;timestamp;temperature;humidity
30280;DHT22;17097;50.916;5.344;2023-12-28T00:02:04;11.50;99.90
30280;DHT22;17097;50.916;5.344;2023-12-28T00:04:30;11.60;99.90
30280;DHT22;17097;50.916;5.344;2023-12-28T00:06:56;11.60;99.90
30280;DHT22;17097;50.916;5.344;2023-12-28T00:09:21;11.60;99.90
30280;DHT22;17097;50.916;5.344;2023-12-28T00:11:47;11.60;99.90
30280;DHT22;17097;50.916;5.344;2023-12-28T00:14:12;11.50;99.90
30280;DHT22;17097;50.916;5.344;2023-12-28T00:16:38;11.60;99.90
30280;DHT22;17097;50.916;5.344;2023-12-28T00:19:03;11.40;99.90
30280;DHT22;17097;50.916;5.344;2023-12-28T00:21:30;11.40;99.90
30280;DHT22;17097;50.916;5.344;2023-12-28T00:23:55;11.40;99.90
30280;DHT22;17097;50.916;5.344;2023-12-28T00:26:25;11.50;99.90
30280;DHT22;17097;50.916;5.344;2023-12-28T00:28:54;11.40;99.90
30280;DHT22;17097;50.916;5.344;2023-12-28T00:31:19;11.40;99.90
30280;DHT22;17097;50.916;5.344;2023-12-28T00:33:45;11.40;99.90
30280;DHT22;17097;50.916;5.344;2023-12-28T00:36:10;11.40;99.90
30280;DHT22;17097;50.916;5.344;2023-12-28T00:38:36;11.40;99.90
30280;DHT22;17097;50.916;5.344;2023-12-28T00:41:01;11.30;99.90
30280;DHT22;17097;50.916;5.344;2023-12-28T00:43:27;11.30;99.90
30280;DHT22;17097;50.916;5.344;2023-12-28T00:45:52;11.20;99.90
30280;DHT22;17097;50.916;5.344;2023-12-28T00:48:18;11.10;99.90
30280;DHT22;17097;50.916;5.344;2023-12-28T00:50:43;11.10;99.90
30280;DHT22;17097;50.916;5.344;2023-12-28T00:53:09;11.20;99.90
30280;DHT22;17097;50.916;5.344;2023-12-28T00:55:34;11.10;99.90
30280;DHT22;17097;50.916;5.344;2023-12-28T00:58:00;11.10;99.90
30280;DHT22;17097;50.916;5.344;2023-12-28T01:00:27;11.10;99.90
30280;DHT22;17097;50.916;5.344;2023-12-28T01:02:54;11.20;99.90
30280;DHT22;17097;50.916;5.344;2023-12-28T01:05:19;11.10;99.90
30280;DHT22;17097;50.916;5.344;2023-12-28T01:07:46;11.10;99.90
30280;DHT22;17097;50.916;5.344;2023-12-28T01:10:11;11.20;99.90
30280;DHT22;17097;50.916;5.344;2023-12-28T01:12:37;11.20;99.90
30280;DHT22;17097;50.916;5.344;2023-12-28T01:15:03;11.20;99.90
30280;DHT22;17097;50.916;5.344;2023-12-28T01:17:28;11.20;99.90
30280;DHT22;17097;50.916;5.344;2023-12-28T01:19:54;11.20;99.90
30280;DHT22;17097;50.916;5.344;2023-12-28T01:22:21;11.20;99.90
30280;DHT22;17097;50.916;5.344;2023-12-28T01:24:47;11.20;99.90
30280;DHT22;17097;50.916;5.344;2023-12-28T01:27:14;11.20;99.90
30280;DHT22;17097;50.916;5.344;2023-12-28T01:29:40;11.20;99.90
30280;DHT22;17097;50.916;5.344;2023-12-28T01:32:08;11.10;99.90
30280;DHT22;17097;50.916;5.344;2023-12-28T01:34:33;11.00;99.90
30280;DHT22;17097;50.916;5.344;2023-12-28T01:37:01;11.10;99.90
30280;DHT22;17097;50.916;5.344;2023-12-28T01:39:26;11.10;99.90
30280;DHT22;17097;50.916;5.344;2023-12-28T01:41:52;11.10;99.90
30280;DHT22;17097;50.916;5.344;2023-12-28T01:44:20;11.10;99.90
30280;DHT22;17097;50.916;5.344;2023-12-28T01:46:48;11.20;99.90
30280;DHT22;17097;50.916;5.344;2023-12-28T01:49:14;11.30;99.90
30280;DHT22;17097;50.916;5.344;2023-12-28T01:51:40;11.30;99.90
30280;DHT22;17097;50.916;5.344;2023-12-28T01:54:06;11.30;99.90
30280;DHT22;17097;50.916;5.344;2023-12-28T01:56:31;11.20;99.90
30280;DHT22;17097;50.916;5.344;2023-12-28T01:58:57;11.30;99.90
30280;DHT22;17097;50.916;5.344;2023-12-28T02:01:25;11.30;99.90
30280;DHT22;17097;50.916;5.344;2023-12-28T02:03:51;11.40;99.90
30280;DHT22;17097;50.916;5.344;2023-12-28T02:06:19;11.40;99.90
30280;DHT22;17097;50.916;5.344;2023-12-28T02:08:48;11.40;99.90
30280;DHT22;17097;50.916;5.344;2023-12-28T02:11:13;11.40;99.90
30280;DHT22;17097;50.916;5.344;2023-12-28T02:13:39;11.50;99.90
30280;DHT22;17097;50.916;5.344;2023-12-28T02:16:49;11.40;99.90
30280;DHT22;17097;50.916;5.344;2023-12-28T02:18:54;11.50;99.90
30280;DHT22;17097;50.916;5.344;2023-12-28T02:21:24;11.60;99.90
30280;DHT22;17097;50.916;5.344;2023-12-28T02:23:50;11.60;99.90
30280;DHT22;17097;50.916;5.344;2023-12-28T02:26:18;11.60;99.90
30280;DHT22;17097;50.916;5.344;2023-12-28T02:28:44;11.50;99.90
30280;DHT22;17097;50.916;5.344;2023-12-28T02:31:11;11.30;99.90
30280;DHT22;17097;50.916;5.344;2023-12-28T02:33:58;11.40;99.90
30280;DHT22;17097;50.916;5.344;2023-12-28T02:36:23;11.40;99.90
30280;DHT22;17097;50.916;5.344;2023-12-28T02:38:49;11.40;99.90
30280;DHT22;17097;50.916;5.344;2023-12-28T02:41:16;11.30;99.90
30280;DHT22;17097;50.916;5.344;2023-12-28T02:43:44;11.40;99.90
30280;DHT22;17097;50.916;5.344;2023-12-28T02:46:11;11.40;99.90
30280;DHT22;17097;50.916;5.344;2023-12-28T02:48:39;11.30;99.90
30280;DHT22;17097;50.916;5.344;2023-12-28T02:51:05;11.30;99.90
30280;DHT22;17097;50.916;5.344;2023-12-28T02:53:31;11.40;99.90
30280;DHT22;17097;50.916;5.344;2023-12-28T02:55:56;11.40;99.90
30280;DHT22;17097;50.916;5.344;2023-12-28T02:58:22;11.50;99.90
30280;DHT22;17097;50.916;5.344;2023-12-28T03:00:47;11.50;99.90
30280;DHT22;17097;50.916;5.344;2023-12-28T03:03:14;11.50;99.90
30280;DHT22;17097;50.916;5.344;2023-12-28T03:05:39;11.60;99.90
30280;DHT22;17097;50.916;5.344;2023-12-28T03:08:05;11.50;99.90
30280;DHT22;17097;50.916;5.344;2023-12-28T03:10:30;11.60;99.90
30280;DHT22;17097;50.916;5.344;2023-12-28T03:12:56;11.60;99.90
30280;DHT22;17097;50.916;5.344;2023-12-28T03:15:23;11.60;99.90
30280;DHT22;17097;50.916;5.344;2023-12-28T03:17:51;11.70;99.90
30280;DHT22;17097;50.916;5.344;2023-12-28T03:20:16;11.60;99.90
30280;DHT22;17097;50.916;5.344;2023-12-28T03:22:42;11.40;99.90
30280;DHT22;17097;50.916;5.344;2023-12-28T03:25:09;11.30;99.90
30280;DHT22;17097;50.916;5.344;2023-12-28T03:27:35;11.50;99.90
30280;DHT22;17097;50.916;5.344;2023-12-28T03:30:00;11.50;99.90
30280;DHT22;17097;50.916;5.344;2023-12-28T03:32:27;11.50;99.90
30280;DHT22;17097;50.916;5.344;2023-12-28T03:34:55;11.60;99.90
30280;DHT22;17097;50.916;5.344;2023-12-28T03:37:25;11.50;99.90
30280;DHT22;17097;50.916;5.344;2023-12-28T03:39:51;11.50;99.90
30280;DHT22;17097;50.916;5.344;2023-12-28T03:42:19;11.40;99.90
30280;DHT22;17097;50.916;5.344;2023-12-28T03:44:44;11.40;99.90
30280;DHT22;17097;50.916;5.344;2023-12-28T03:47:12;11.30;99.90
30280;DHT22;17097;50.916;5.344;2023-12-28T03:49:38;11.40;99.90
30280;DHT22;17097;50.916;5.344;2023-12-28T03:52:04;11.30;99.90
30280;DHT22;17097;50.916;5.344;2023-12-28T03:54:30;11.40;99.90
30280;DHT22;17097;50.916;5.344;2023-12-28T03:56:55;11.30;99.90
30280;DHT22;17097;50.916;5.344;2023-12-28T03:59:23;11.40;99.90
30280;DHT22;17097;50.916;5.344;2023-12-28T04:01:49;11.40;99.90
30280;DHT22;17097;50.916;5.344;2023-12-28T04:04:14;11.40;99.90
30280;DHT22;17097;50.916;5.344;2023-12-28T04:06:40;11.40;99.90
30280;DHT22;17097;50.916;5.344;2023-12-28T04:09:07;11.40;99.90
30280;DHT22;17097;50.916;5.344;2023-12-28T04:11:33;11.50;99.90
30280;DHT22;17097;50.916;5.344;2023-12-28T04:14:00;11.50;99.90
30280;DHT22;17097;50.916;5.344;2023-12-28T04:16:26;11.50;99.90
30280;DHT22;17097;50.916;5.344;2023-12-28T04:18:51;11.50;99.90
30280;DHT22;17097;50.916;5.344;2023-12-28T04:21:17;11.60;99.90
30280;DHT22;17097;50.916;5.344;2023-12-28T04:23:42;11.60;99.90
30280;DHT22;17097;50.916;5.344;2023-12-28T04:26:08;11.50;99.90
30280;DHT22;17097;50.916;5.344;2023-12-28T04:28:34;11.60;99.90
30280;DHT22;17097;50.916;5.344;2023-12-28T04:31:02;11.60;99.90
30280;DHT22;17097;50.916;5.344;2023-12-28T04:33:28;11.60;99.90
30280;DHT22;17097;50.916;5.344;2023-12-28T04:35:54;11.60;99.90
30280;DHT22;17097;50.916;5.344;2023-12-28T04:38:19;11.70;99.90
30280;DHT22;17097;50.916;5.344;2023-12-28T04:40:45;11.60;99.90
30280;DHT22;17097;50.916;5.344;2023-12-28T04:43:10;11.60;99.90
30280;DHT22;17097;50.916;5.344;2023-12-28T04:45:36;11.50;99.90
30280;DHT22;17097;50.916;5.344;2023-12-28T04:48:04;11.50;99.90
30280;DHT22;17097;50.916;5.344;2023-12-28T04:50:29;11.60;99.90
30280;DHT22;17097;50.916;5.344;2023-12-28T04:52:57;11.60;99.90
30280;DHT22;17097;50.916;5.344;2023-12-28T04:55:25;11.60;99.90
30280;DHT22;17097;50.916;5.344;2023-12-28T04:57:51;11.60;99.90
30280;DHT22;17097;50.916;5.344;2023-12-28T05:00:19;11.60;99.90
30280;DHT22;17097;50.916;5.344;2023-12-28T05:02:46;11.60;99.90
30280;DHT22;17097;50.916;5.344;2023-12-28T05:05:12;11.60;99.90
30280;DHT22;17097;50.916;5.344;2023-12-28T05:07:37;11.60;99.90
30280;DHT22;17097;50.916;5.344;2023-12-28T05:10:04;11.60;99.90
30280;DHT22;17097;50.916;5.344;2023-12-28T05:12:29;11.70;99.90
30280;DHT22;17097;50.916;5.344;2023-12-28T05:14:57;11.80;99.90
30280;DHT22;17097;50.916;5.344;2023-12-28T05:17:22;11.80;99.90
30280;DHT22;17097;50.916;5.344;2023-12-28T05:19:48;11.70;99.90
30280;DHT22;17097;50.916;5.344;2023-12-28T05:22:13;11.70;99.90
30280;DHT22;17097;50.916;5.344;2023-12-28T05:24:39;11.80;99.90
30280;DHT22;17097;50.916;5.344;2023-12-28T05:27:07;11.70;99.90
30280;DHT22;17097;50.916;5.344;2023-12-28T05:29:32;11.70;99.90
30280;DHT22;17097;50.916;5.344;2023-12-28T05:31:58;11.70;99.90
30280;DHT22;17097;50.916;5.344;2023-12-28T05:34:23;11.80;99.90
30280;DHT22;17097;50.916;5.344;2023-12-28T05:36:49;11.70;99.90
30280;DHT22;17097;50.916;5.344;2023-12-28T05:39:15;11.70;99.90
30280;DHT22;17097;50.916;5.344;2023-12-28T05:41:40;11.70;99.90
30280;DHT22;17097;50.916;5.344;2023-12-28T05:44:06;11.70;99.90
30280;DHT22;17097;50.916;5.344;2023-12-28T05:46:31;11.70;99.90
30280;DHT22;17097;50.916;5.344;2023-12-28T05:49:01;11.70;99.90
30280;DHT22;17097;50.916;5.344;2023-12-28T05:51:27;11.70;99.90
30280;DHT22;17097;50.916;5.344;2023-12-28T05:53:52;11.60;99.90
30280;DHT22;17097;50.916;5.344;2023-12-28T05:56:18;11.40;99.90
30280;DHT22;17097;50.916;5.344;2023-12-28T05:58:43;11.50;99.90
30280;DHT22;17097;50.916;5.344;2023-12-28T06:01:09;11.40;99.90
30280;DHT22;17097;50.916;5.344;2023-12-28T06:03:34;11.40;99.90
30280;DHT22;17097;50.916;5.344;2023-12-28T06:06:00;11.40;99.90
30280;DHT22;17097;50.916;5.344;2023-12-28T06:08:25;11.40;99.90
30280;DHT22;17097;50.916;5.344;2023-12-28T06:10:51;11.40;99.90
30280;DHT22;17097;50.916;5.344;2023-12-28T06:13:16;11.30;99.90
30280;DHT22;17097;50.916;5.344;2023-12-28T06:15:42;11.30;99.90
30280;DHT22;17097;50.916;5.344;2023-12-28T06:18:08;11.30;99.90
30280;DHT22;17097;50.916;5.344;2023-12-28T06:20:34;11.40;99.90
30280;DHT22;17097;50.916;5.344;2023-12-28T06:23:01;11.50;99.90
30280;DHT22;17097;50.916;5.344;2023-12-28T06:25:27;11.40;99.90
30280;DHT22;17097;50.916;5.344;2023-12-28T06:27:52;11.40;99.90
30280;DHT22;17097;50.916;5.344;2023-12-28T06:30:18;11.40;99.90
30280;DHT22;17097;50.916;5.344;2023-12-28T06:32:45;11.50;99.90
30280;DHT22;17097;50.916;5.344;2023-12-28T06:35:11;11.60;99.90
30280;DHT22;17097;50.916;5.344;2023-12-28T06:37:36;11.70;99.90
30280;DHT22;17097;50.916;5.344;2023-12-28T06:40:02;11.60;99.90
30280;DHT22;17097;50.916;5.344;2023-12-28T06:42:28;11.60;99.90
30280;DHT22;17097;50.916;5.344;2023-12-28T06:44:53;11.50;99.90
30280;DHT22;17097;50.916;5.344;2023-12-28T06:47:21;11.60;99.90
30280;DHT22;17097;50.916;5.344;2023-12-28T06:49:49;11.40;99.90
30280;DHT22;17097;50.916;5.344;2023-12-28T06:52:14;11.50;99.90
30280;DHT22;17097;50.916;5.344;2023-12-28T06:54:40;11.50;99.90
30280;DHT22;17097;50.916;5.344;2023-12-28T06:57:06;11.60;99.90
30280;DHT22;17097;50.916;5.344;2023-12-28T06:59:31;11.50;99.90
30280;DHT22;17097;50.916;5.344;2023-12-28T07:01:57;11.50;99.90
30280;DHT22;17097;50.916;5.344;2023-12-28T07:04:22;11.50;99.90
30280;DHT22;17097;50.916;5.344;2023-12-28T07:06:53;11.40;99.90
30280;DHT22;17097;50.916;5.344;2023-12-28T07:09:18;11.50;99.90
30280;DHT22;17097;50.916;5.344;2023-12-28T07:11:46;11.50;99.90
30280;DHT22;17097;50.916;5.344;2023-12-28T07:14:12;11.50;99.90
30280;DHT22;17097;50.916;5.344;2023-12-28T07:16:40;11.50;99.90
30280;DHT22;17097;50.916;5.344;2023-12-28T07:19:05;11.60;99.90
30280;DHT22;17097;50.916;5.344;2023-12-28T07:21:31;11.60;99.90
30280;DHT22;17097;50.916;5.344;2023-12-28T07:23:59;11.60;99.90
30280;DHT22;17097;50.916;5.344;2023-12-28T07:26:24;11.50;99.90
30280;DHT22;17097;50.916;5.344;2023-12-28T07:28:50;11.60;99.90
30280;DHT22;17097;50.916;5.344;2023-12-28T07:31:22;11.50;99.90
30280;DHT22;17097;50.916;5.344;2023-12-28T07:33:48;11.50;99.90
30280;DHT22;17097;50.916;5.344;2023-12-28T07:36:13;11.60;99.90
30280;DHT22;17097;50.916;5.344;2023-12-28T07:38:39;11.60;99.90
30280;DHT22;17097;50.916;5.344;2023-12-28T07:41:04;11.60;99.90
30280;DHT22;17097;50.916;5.344;2023-12-28T07:43:30;11.50;99.90
30280;DHT22;17097;50.916;5.344;2023-12-28T07:45:55;11.50;99.90
30280;DHT22;17097;50.916;5.344;2023-12-28T07:48:21;11.60;99.90
30280;DHT22;17097;50.916;5.344;2023-12-28T07:50:46;11.50;99.90
30280;DHT22;17097;50.916;5.344;2023-12-28T07:53:12;11.60;99.90
30280;DHT22;17097;50.916;5.344;2023-12-28T07:55:37;11.60;99.90
30280;DHT22;17097;50.916;5.344;2023-12-28T07:58:05;11.50;99.90
30280;DHT22;17097;50.916;5.344;2023-12-28T08:00:31;11.40;99.90
30280;DHT22;17097;50.916;5.344;2023-12-28T08:03:01;11.40;99.90
30280;DHT22;17097;50.916;5.344;2023-12-28T08:05:27;11.30;99.90
30280;DHT22;17097;50.916;5.344;2023-12-28T08:07:52;11.40;99.90
30280;DHT22;17097;50.916;5.344;2023-12-28T08:10:18;11.40;99.90
30280;DHT22;17097;50.916;5.344;2023-12-28T08:12:43;11.40;99.90
30280;DHT22;17097;50.916;5.344;2023-12-28T08:15:09;11.20;99.90
30280;DHT22;17097;50.916;5.344;2023-12-28T08:17:34;11.30;99.90
30280;DHT22;17097;50.916;5.344;2023-12-28T08:20:00;11.30;99.90
30280;DHT22;17097;50.916;5.344;2023-12-28T08:22:25;11.30;99.90
30280;DHT22;17097;50.916;5.344;2023-12-28T08:24:53;11.30;99.90
30280;DHT22;17097;50.916;5.344;2023-12-28T08:27:19;11.40;99.90
30280;DHT22;17097;50.916;5.344;2023-12-28T08:29:44;11.60;99.90
30280;DHT22;17097;50.916;5.344;2023-12-28T08:32:11;11.70;99.90
30280;DHT22;17097;50.916;5.344;2023-12-28T08:34:36;11.80;99.90
30280;DHT22;17097;50.916;5.344;2023-12-28T08:37:02;11.90;99.90
30280;DHT22;17097;50.916;5.344;2023-12-28T08:39:28;12.30;99.90
30280;DHT22;17097;50.916;5.344;2023-12-28T08:41:56;12.50;99.90
30280;DHT22;17097;50.916;5.344;2023-12-28T08:44:21;12.50;99.90
30280;DHT22;17097;50.916;5.344;2023-12-28T08:46:47;12.70;99.90
30280;DHT22;17097;50.916;5.344;2023-12-28T08:49:15;12.80;99.90
30280;DHT22;17097;50.916;5.344;2023-12-28T08:51:41;13.00;99.90
30280;DHT22;17097;50.916;5.344;2023-12-28T08:54:07;13.10;99.90
30280;DHT22;17097;50.916;5.344;2023-12-28T08:56:34;13.10;99.90
30280;DHT22;17097;50.916;5.344;2023-12-28T08:59:00;13.10;99.90
30280;DHT22;17097;50.916;5.344;2023-12-28T09:01:28;13.20;99.90
30280;DHT22;17097;50.916;5.344;2023-12-28T09:03:55;13.00;99.90
30280;DHT22;17097;50.916;5.344;2023-12-28T09:06:20;12.90;99.90
30280;DHT22;17097;50.916;5.344;2023-12-28T09:08:50;12.90;99.90
30280;DHT22;17097;50.916;5.344;2023-12-28T09:11:15;12.80;99.90
30280;DHT22;17097;50.916;5.344;2023-12-28T09:13:41;12.70;99.90
30280;DHT22;17097;50.916;5.344;2023-12-28T09:16:07;12.70;99.90
30280;DHT22;17097;50.916;5.344;2023-12-28T09:18:33;12.70;99.90
30280;DHT22;17097;50.916;5.344;2023-12-28T09:20:58;12.70;99.90
30280;DHT22;17097;50.916;5.344;2023-12-28T09:23:26;12.70;99.90
30280;DHT22;17097;50.916;5.344;2023-12-28T09:25:52;12.70;99.90
30280;DHT22;17097;50.916;5.344;2023-12-28T09:28:17;12.70;99.90
30280;DHT22;17097;50.916;5.344;2023-12-28T09:30:43;12.80;99.90
30280;DHT22;17097;50.916;5.344;2023-12-28T09:33:08;12.80;99.90
30280;DHT22;17097;50.916;5.344;2023-12-28T09:36:05;12.90;99.90
30280;DHT22;17097;50.916;5.344;2023-12-28T09:38:31;13.00;99.90
30280;DHT22;17097;50.916;5.344;2023-12-28T09:40:58;13.00;99.90
30280;DHT22;17097;50.916;5.344;2023-12-28T09:43:37;13.00;99.90
30280;DHT22;17097;50.916;5.344;2023-12-28T09:46:07;13.00;99.90
30280;DHT22;17097;50.916;5.344;2023-12-28T09:48:35;13.00;99.90
30280;DHT22;17097;50.916;5.344;2023-12-28T09:51:02;12.90;99.90
30280;DHT22;17097;50.916;5.344;2023-12-28T09:53:28;12.80;99.90
30280;DHT22;17097;50.916;5.344;2023-12-28T09:55:54;12.90;99.90
30280;DHT22;17097;50.916;5.344;2023-12-28T09:58:21;12.90;99.90
30280;DHT22;17097;50.916;5.344;2023-12-28T10:00:49;13.10;99.90
30280;DHT22;17097;50.916;5.344;2023-12-28T10:03:16;13.10;99.90
30280;DHT22;17097;50.916;5.344;2023-12-28T10:05:45;13.20;99.90
30280;DHT22;17097;50.916;5.344;2023-12-28T10:08:14;13.30;99.90
30280;DHT22;17097;50.916;5.344;2023-12-28T10:10:44;13.50;99.90
30280;DHT22;17097;50.916;5.344;2023-12-28T10:13:16;13.80;99.90
30280;DHT22;17097;50.916;5.344;2023-12-28T10:15:43;14.40;99.90
30280;DHT22;17097;50.916;5.344;2023-12-28T10:18:11;15.10;99.90
30280;DHT22;17097;50.916;5.344;2023-12-28T10:20:38;15.50;99.90
30280;DHT22;17097;50.916;5.344;2023-12-28T10:23:06;15.70;99.90
30280;DHT22;17097;50.916;5.344;2023-12-28T10:25:32;15.90;99.90
30280;DHT22;17097;50.916;5.344;2023-12-28T10:28:04;16.20;99.90
30280;DHT22;17097;50.916;5.344;2023-12-28T10:30:30;16.70;99.90
30280;DHT22;17097;50.916;5.344;2023-12-28T10:32:59;16.80;99.90
30280;DHT22;17097;50.916;5.344;2023-12-28T10:35:24;16.70;99.90
30280;DHT22;17097;50.916;5.344;2023-12-28T10:37:52;16.70;99.90
30280;DHT22;17097;50.916;5.344;2023-12-28T10:40:20;16.50;99.90
30280;DHT22;17097;50.916;5.344;2023-12-28T10:43:05;16.50;99.90
30280;DHT22;17097;50.916;5.344;2023-12-28T10:45:32;16.60;99.90
30280;DHT22;17097;50.916;5.344;2023-12-28T10:48:05;16.70;99.90
30280;DHT22;17097;50.916;5.344;2023-12-28T10:50:45;16.60;99.90
30280;DHT22;17097;50.916;5.344;2023-12-28T10:53:33;16.20;99.90
30280;DHT22;17097;50.916;5.344;2023-12-28T10:56:20;16.00;99.90
30280;DHT22;17097;50.916;5.344;2023-12-28T10:59:02;15.80;99.90
30280;DHT22;17097;50.916;5.344;2023-12-28T11:01:32;16.10;99.90
30280;DHT22;17097;50.916;5.344;2023-12-28T11:04:07;16.30;99.90
30280;DHT22;17097;50.916;5.344;2023-12-28T11:06:39;16.30;99.90
30280;DHT22;17097;50.916;5.344;2023-12-28T11:09:07;15.90;99.90
30280;DHT22;17097;50.916;5.344;2023-12-28T11:11:34;15.80;99.90
30280;DHT22;17097;50.916;5.344;2023-12-28T11:14:00;15.80;99.90
30280;DHT22;17097;50.916;5.344;2023-12-28T11:16:27;15.50;99.90
30280;DHT22;17097;50.916;5.344;2023-12-28T11:18:54;15.80;99.90
30280;DHT22;17097;50.916;5.344;2023-12-28T11:21:23;16.00;99.90
30280;DHT22;17097;50.916;5.344;2023-12-28T11:23:51;16.00;99.90
30280;DHT22;17097;50.916;5.344;2023-12-28T11:26:21;15.90;99.90
30280;DHT22;17097;50.916;5.344;2023-12-28T11:28:47;15.90;99.90
30280;DHT22;17097;50.916;5.344;2023-12-28T11:31:17;15.60;99.90
30280;DHT22;17097;50.916;5.344;2023-12-28T11:33:47;15.50;99.90
30280;DHT22;17097;50.916;5.344;2023-12-28T11:36:43;15.30;99.90
30280;DHT22;17097;50.916;5.344;2023-12-28T11:39:12;14.80;99.90
30280;DHT22;17097;50.916;5.344;2023-12-28T11:41:45;14.70;99.90
30280;DHT22;17097;50.916;5.344;2023-12-28T11:44:11;14.80;99.90
30280;DHT22;17097;50.916;5.344;2023-12-28T11:46:36;14.80;99.90
30280;DHT22;17097;50.916;5.344;2023-12-28T11:49:05;14.80;99.90
30280;DHT22;17097;50.916;5.344;2023-12-28T11:51:35;14.70;99.90
30280;DHT22;17097;50.916;5.344;2023-12-28T11:54:06;14.50;99.90
30280;DHT22;17097;50.916;5.344;2023-12-28T11:56:34;14.30;99.90
30280;DHT22;17097;50.916;5.344;2023-12-28T11:58:59;14.40;99.90
30280;DHT22;17097;50.916;5.344;2023-12-28T12:01:25;14.40;99.90
30280;DHT22;17097;50.916;5.344;2023-12-28T12:03:53;14.50;99.90
30280;DHT22;17097;50.916;5.344;2023-12-28T12:06:19;14.40;99.90
30280;DHT22;17097;50.916;5.344;2023-12-28T12:08:45;14.30;99.90
30280;DHT22;17097;50.916;5.344;2023-12-28T12:11:12;14.20;99.90
30280;DHT22;17097;50.916;5.344;2023-12-28T12:13:38;14.20;99.90
30280;DHT22;17097;50.916;5.344;2023-12-28T12:16:04;14.20;99.90
30280;DHT22;17097;50.916;5.344;2023-12-28T12:18:32;14.10;99.90
30280;DHT22;17097;50.916;5.344;2023-12-28T12:21:01;14.00;99.90
30280;DHT22;17097;50.916;5.344;2023-12-28T12:23:28;13.90;99.90
30280;DHT22;17097;50.916;5.344;2023-12-28T12:25:56;13.90;99.90
30280;DHT22;17097;50.916;5.344;2023-12-28T12:28:24;13.90;99.90
30280;DHT22;17097;50.916;5.344;2023-12-28T12:30:54;13.80;99.90
30280;DHT22;17097;50.916;5.344;2023-12-28T12:33:21;13.70;99.90
30280;DHT22;17097;50.916;5.344;2023-12-28T12:35:50;13.70;99.90
30280;DHT22;17097;50.916;5.344;2023-12-28T12:38:16;13.70;99.90
30280;DHT22;17097;50.916;5.344;2023-12-28T12:40:42;13.60;99.90
30280;DHT22;17097;50.916;5.344;2023-12-28T12:43:10;13.80;99.90
30280;DHT22;17097;50.916;5.344;2023-12-28T12:45:36;13.80;99.90
30280;DHT22;17097;50.916;5.344;2023-12-28T12:48:05;13.90;99.90
30280;DHT22;17097;50.916;5.344;2023-12-28T12:50:33;13.90;99.90
30280;DHT22;17097;50.916;5.344;2023-12-28T12:53:04;13.80;99.90
30280;DHT22;17097;50.916;5.344;2023-12-28T12:55:30;13.90;99.90
30280;DHT22;17097;50.916;5.344;2023-12-28T12:57:57;13.80;99.90
30280;DHT22;17097;50.916;5.344;2023-12-28T13:00:23;13.80;99.90
30280;DHT22;17097;50.916;5.344;2023-12-28T13:02:52;13.80;99.90
30280;DHT22;17097;50.916;5.344;2023-12-28T13:05:23;13.80;99.90
30280;DHT22;17097;50.916;5.344;2023-12-28T13:07:49;13.90;99.90
30280;DHT22;17097;50.916;5.344;2023-12-28T13:10:20;13.80;99.90
30280;DHT22;17097;50.916;5.344;2023-12-28T13:12:46;13.90;99.90
30280;DHT22;17097;50.916;5.344;2023-12-28T13:15:14;13.90;99.90
30280;DHT22;17097;50.916;5.344;2023-12-28T13:17:39;13.90;99.90
30280;DHT22;17097;50.916;5.344;2023-12-28T13:20:09;13.80;99.90
30280;DHT22;17097;50.916;5.344;2023-12-28T13:22:35;14.00;99.90
30280;DHT22;17097;50.916;5.344;2023-12-28T13:25:00;14.10;99.90
30280;DHT22;17097;50.916;5.344;2023-12-28T13:27:27;13.90;99.90
30280;DHT22;17097;50.916;5.344;2023-12-28T13:29:54;13.70;99.90
30280;DHT22;17097;50.916;5.344;2023-12-28T13:32:22;13.80;99.90
30280;DHT22;17097;50.916;5.344;2023-12-28T13:34:49;13.80;99.90
30280;DHT22;17097;50.916;5.344;2023-12-28T13:37:16;14.00;99.90
30280;DHT22;17097;50.916;5.344;2023-12-28T13:39:42;13.80;99.90
30280;DHT22;17097;50.916;5.344;2023-12-28T13:42:08;13.80;99.90
30280;DHT22;17097;50.916;5.344;2023-12-28T13:44:34;13.80;99.90
30280;DHT22;17097;50.916;5.344;2023-12-28T13:47:04;13.60;99.90
30280;DHT22;17097;50.916;5.344;2023-12-28T13:49:32;13.60;99.90
30280;DHT22;17097;50.916;5.344;2023-12-28T13:51:58;13.60;99.90
30280;DHT22;17097;50.916;5.344;2023-12-28T13:54:23;13.60;99.90
30280;DHT22;17097;50.916;5.344;2023-12-28T13:56:49;13.50;99.90
30280;DHT22;17097;50.916;5.344;2023-12-28T13:59:15;13.50;99.90
30280;DHT22;17097;50.916;5.344;2023-12-28T14:01:43;13.50;99.90
30280;DHT22;17097;50.916;5.344;2023-12-28T14:04:10;13.40;99.90
30280;DHT22;17097;50.916;5.344;2023-12-28T14:06:35;13.30;99.90
30280;DHT22;17097;50.916;5.344;2023-12-28T14:09:01;13.30;99.90
30280;DHT22;17097;50.916;5.344;2023-12-28T14:11:29;13.40;99.90
30280;DHT22;17097;50.916;5.344;2023-12-28T14:13:54;13.40;99.90
30280;DHT22;17097;50.916;5.344;2023-12-28T14:16:20;13.30;99.90
30280;DHT22;17097;50.916;5.344;2023-12-28T14:18:48;13.20;99.90
30280;DHT22;17097;50.916;5.344;2023-12-28T14:21:18;13.20;99.90
30280;DHT22;17097;50.916;5.344;2023-12-28T14:23:44;13.10;99.90
30280;DHT22;17097;50.916;5.344;2023-12-28T14:26:14;13.10;99.90
30280;DHT22;17097;50.916;5.344;2023-12-28T14:28:43;13.20;99.90
30280;DHT22;17097;50.916;5.344;2023-12-28T14:31:10;13.20;99.90
30280;DHT22;17097;50.916;5.344;2023-12-28T14:33:36;13.30;99.90
30280;DHT22;17097;50.916;5.344;2023-12-28T14:36:05;13.20;99.90
30280;DHT22;17097;50.916;5.344;2023-12-28T14:38:35;13.20;99.90
30280;DHT22;17097;50.916;5.344;2023-12-28T14:41:01;13.20;99.90
30280;DHT22;17097;50.916;5.344;2023-12-28T14:43:27;13.30;99.90
30280;DHT22;17097;50.916;5.344;2023-12-28T14:45:52;13.20;99.90
30280;DHT22;17097;50.916;5.344;2023-12-28T14:48:18;13.10;99.90
30280;DHT22;17097;50.916;5.344;2023-12-28T14:50:44;13.10;99.90
30280;DHT22;17097;50.916;5.344;2023-12-28T14:53:10;13.10;99.90
30280;DHT22;17097;50.916;5.344;2023-12-28T14:55:35;13.10;99.90
30280;DHT22;17097;50.916;5.344;2023-12-28T14:58:01;13.00;99.90
30280;DHT22;17097;50.916;5.344;2023-12-28T15:00:27;13.00;99.90
30280;DHT22;17097;50.916;5.344;2023-12-28T15:02:55;12.90;99.90
30280;DHT22;17097;50.916;5.344;2023-12-28T15:05:23;12.80;99.90
30280;DHT22;17097;50.916;5.344;2023-12-28T15:07:49;12.70;99.90
30280;DHT22;17097;50.916;5.344;2023-12-28T15:10:17;12.70;99.90
30280;DHT22;17097;50.916;5.344;2023-12-28T15:12:43;12.60;99.90
30280;DHT22;17097;50.916;5.344;2023-12-28T15:15:09;12.60;99.90
30280;DHT22;17097;50.916;5.344;2023-12-28T15:17:38;12.60;99.90
30280;DHT22;17097;50.916;5.344;2023-12-28T15:20:07;12.50;99.90
30280;DHT22;17097;50.916;5.344;2023-12-28T15:22:36;12.50;99.90
30280;DHT22;17097;50.916;5.344;2023-12-28T15:25:01;12.50;99.90
30280;DHT22;17097;50.916;5.344;2023-12-28T15:27:27;12.40;99.90
30280;DHT22;17097;50.916;5.344;2023-12-28T15:29:53;12.40;99.90